Time,TemperatureF,DewpointF,PressureIn,WindDirection,WindDirectionDegrees,WindSpeedMPH,WindSpeedGustMPH,Humidity,HourlyPrecipIn,Conditions,Clouds,dailyrainin,SoftwareType,DateUTC
2013-05-15 00:03:00,72.0,60.0,30.19,NNE,30,0.0,2.0,67,0.00,,,0.00,,2013-05-15 04:03:00,
2013-05-15 00:12:00,72.0,60.0,30.19,NNE,30,0.0,2.0,67,0.00,,,0.00,,2013-05-15 04:12:00,
2013-05-15 00:24:00,72.0,61.0,30.19,NE,42,0.0,1.0,68,0.00,,,0.00,,2013-05-15 04:24:00,
2013-05-15 00:33:00,72.0,61.0,30.19,ENE,70,0.0,1.0,68,0.00,,,0.00,,2013-05-15 04:33:00,
2013-05-15 00:42:00,72.0,61.0,30.19,ENE,70,0.0,1.0,68,0.00,,,0.00,,2013-05-15 04:42:00,
2013-05-15 00:52:00,72.0,60.0,30.18,NE,48,0.0,1.0,66,0.00,,,0.00,,2013-05-15 04:52:00,
2013-05-15 01:02:00,72.0,60.0,30.18,NE,56,0.0,2.0,66,0.00,,,0.00,,2013-05-15 05:02:00,
2013-05-15 01:12:00,72.0,60.0,30.18,NE,56,0.0,2.0,66,0.00,,,0.00,,2013-05-15 05:12:00,
2013-05-15 01:22:00,72.0,60.0,30.18,NE,36,0.0,2.0,65,0.00,,,0.00,,2013-05-15 05:22:00,
2013-05-15 01:32:00,71.0,59.0,30.17,NE,47,0.0,1.0,66,0.00,,,0.00,,2013-05-15 05:32:00,
2013-05-15 01:42:00,71.0,59.0,30.17,NE,47,0.0,1.0,66,0.00,,,0.00,,2013-05-15 05:42:00,
2013-05-15 01:52:00,71.0,59.0,30.17,NE,54,0.0,1.0,67,0.00,,,0.00,,2013-05-15 05:52:00,
2013-05-15 02:02:00,71.0,60.0,30.16,NE,55,0.0,1.0,68,0.00,,,0.00,,2013-05-15 06:02:00,
2013-05-15 02:11:00,71.0,60.0,30.16,NE,55,0.0,1.0,68,0.00,,,0.00,,2013-05-15 06:11:00,
2013-05-15 02:21:00,71.0,60.0,30.16,NE,56,0.0,2.0,68,0.00,,,0.00,,2013-05-15 06:21:00,
2013-05-15 02:32:00,71.0,60.0,30.15,NE,56,0.0,1.0,69,0.00,,,0.00,,2013-05-15 06:32:00,
2013-05-15 02:42:00,70.0,60.0,30.15,NE,56,0.0,0.0,71,0.00,,,0.00,,2013-05-15 06:42:00,
2013-05-15 02:52:00,70.0,60.0,30.15,NE,56,0.0,0.0,71,0.00,,,0.00,,2013-05-15 06:52:00,
2013-05-15 03:01:00,69.0,60.0,30.15,NE,56,0.0,0.0,73,0.00,,,0.00,,2013-05-15 07:01:00,
2013-05-15 03:11:00,69.0,60.0,30.15,NE,56,0.0,0.0,73,0.00,,,0.00,,2013-05-15 07:11:00,
2013-05-15 03:22:00,68.0,60.0,30.15,NE,56,0.0,0.0,75,0.00,,,0.00,,2013-05-15 07:22:00,
2013-05-15 03:32:00,67.0,60.0,30.15,ENE,57,0.0,0.0,77,0.00,,,0.00,,2013-05-15 07:32:00,
2013-05-15 03:41:00,67.0,60.0,30.15,ENE,57,0.0,0.0,77,0.00,,,0.00,,2013-05-15 07:41:00,
2013-05-15 03:52:00,67.0,60.0,30.15,ENE,57,0.0,0.0,78,0.00,,,0.00,,2013-05-15 07:52:00,
2013-05-15 04:02:00,67.0,60.0,30.14,NE,56,0.0,0.0,79,0.00,,,0.00,,2013-05-15 08:02:00,
2013-05-15 04:12:00,67.0,60.0,30.14,NE,56,0.0,0.0,79,0.00,,,0.00,,2013-05-15 08:12:00,
2013-05-15 04:21:00,67.0,61.0,30.14,NE,56,0.0,0.0,80,0.00,,,0.00,,2013-05-15 08:21:00,
2013-05-15 04:32:00,68.0,62.0,30.14,NE,41,0.0,1.0,80,0.00,,,0.00,,2013-05-15 08:32:00,
2013-05-15 04:42:00,68.0,61.0,30.14,NE,41,0.0,0.0,79,0.00,,,0.00,,2013-05-15 08:42:00,
2013-05-15 04:53:00,68.0,61.0,30.14,NE,41,0.0,0.0,79,0.00,,,0.00,,2013-05-15 08:53:00,
2013-05-15 05:01:00,68.0,61.0,30.14,NE,41,0.0,0.0,79,0.00,,,0.00,,2013-05-15 09:01:00,
2013-05-15 05:11:00,68.0,61.0,30.14,NE,41,0.0,0.0,79,0.00,,,0.00,,2013-05-15 09:11:00,
2013-05-15 05:21:00,67.0,61.0,30.14,NE,41,0.0,0.0,80,0.00,,,0.00,,2013-05-15 09:21:00,
2013-05-15 05:33:00,67.0,61.0,30.15,NE,41,0.0,0.0,82,0.00,,,0.00,,2013-05-15 09:33:00,
2013-05-15 05:42:00,67.0,61.0,30.15,NE,41,0.0,0.0,82,0.00,,,0.00,,2013-05-15 09:42:00,
2013-05-15 05:53:00,67.0,61.0,30.15,NE,41,0.0,0.0,82,0.00,,,0.00,,2013-05-15 09:53:00,
2013-05-15 06:02:00,67.0,62.0,30.15,NE,41,0.0,0.0,84,0.00,,,0.00,,2013-05-15 10:02:00,
2013-05-15 06:13:00,67.0,62.0,30.15,NE,41,0.0,0.0,84,0.00,,,0.00,,2013-05-15 10:13:00,
2013-05-15 06:22:00,67.0,62.0,30.16,NE,41,0.0,0.0,85,0.00,,,0.00,,2013-05-15 10:22:00,
2013-05-15 06:32:00,66.0,62.0,30.16,NE,41,0.0,0.0,86,0.00,,,0.00,,2013-05-15 10:32:00,
2013-05-15 06:42:00,67.0,63.0,30.16,NE,41,0.0,0.0,87,0.00,,,0.00,,2013-05-15 10:42:00,
2013-05-15 06:52:00,67.0,63.0,30.16,NE,41,0.0,0.0,87,0.00,,,0.00,,2013-05-15 10:52:00,
2013-05-15 07:11:00,67.0,63.0,30.16,NE,41,0.0,0.0,87,0.00,,,0.00,,2013-05-15 11:11:00,
2013-05-15 07:19:00,67.0,63.0,30.16,NE,41,0.0,0.0,88,0.00,,,0.00,,2013-05-15 11:19:00,
2013-05-15 07:27:00,67.0,63.0,30.16,NE,41,0.0,0.0,88,0.00,,,0.00,,2013-05-15 11:27:00,
2013-05-15 07:37:00,67.0,63.0,30.16,NE,41,0.0,0.0,88,0.00,,,0.00,,2013-05-15 11:37:00,
2013-05-15 07:47:00,68.0,64.0,30.16,NE,41,0.0,0.0,88,0.00,,,0.00,,2013-05-15 11:47:00,
2013-05-15 08:01:00,68.0,64.0,30.16,NE,41,0.0,0.0,88,0.00,,,0.00,,2013-05-15 12:01:00,
2013-05-15 08:09:00,69.0,64.0,30.17,NE,44,0.0,1.0,84,0.00,,,0.00,,2013-05-15 12:09:00,
2013-05-15 08:15:00,71.0,65.0,30.17,East,86,0.0,3.0,81,0.00,,,0.00,,2013-05-15 12:15:00,
2013-05-15 08:29:00,71.0,65.0,30.17,East,86,0.0,3.0,81,0.00,,,0.00,,2013-05-15 12:29:00,
2013-05-15 08:36:00,73.0,65.0,30.17,ESE,103,1.0,3.0,75,0.00,,,0.00,,2013-05-15 12:36:00,
2013-05-15 08:47:00,73.0,65.0,30.17,ESE,103,1.0,3.0,75,0.00,,,0.00,,2013-05-15 12:47:00,
2013-05-15 08:57:00,74.0,65.0,30.17,East,87,0.0,3.0,74,0.00,,,0.00,,2013-05-15 12:57:00,
2013-05-15 09:09:00,77.0,63.0,30.18,ENE,67,2.0,9.0,63,0.00,,,0.00,,2013-05-15 13:09:00,
2013-05-15 09:26:00,78.0,63.0,30.19,ENE,70,2.0,9.0,61,0.00,,,0.00,,2013-05-15 13:26:00,
2013-05-15 09:36:00,77.0,63.0,30.19,ENE,73,2.0,6.0,61,0.00,,,0.00,,2013-05-15 13:36:00,
2013-05-15 09:46:00,77.0,63.0,30.19,ENE,73,2.0,6.0,61,0.00,,,0.00,,2013-05-15 13:46:00,
2013-05-15 09:59:00,77.0,62.0,30.19,East,88,3.0,7.0,60,0.00,,,0.00,,2013-05-15 13:59:00,
2013-05-15 10:06:00,79.0,62.0,30.19,NNE,26,1.0,6.0,57,0.00,,,0.00,,2013-05-15 14:06:00,
2013-05-15 10:14:00,79.0,62.0,30.19,NNE,26,1.0,6.0,57,0.00,,,0.00,,2013-05-15 14:14:00,
2013-05-15 10:27:00,79.0,62.0,30.19,ENE,69,3.0,8.0,56,0.00,,,0.00,,2013-05-15 14:27:00,
2013-05-15 10:37:00,79.0,62.0,30.20,SSE,150,2.0,7.0,57,0.00,,,0.00,,2013-05-15 14:37:00,
2013-05-15 10:47:00,79.0,62.0,30.20,SSE,150,2.0,7.0,57,0.00,,,0.00,,2013-05-15 14:47:00,
2013-05-15 10:59:00,79.0,62.0,30.20,ENE,73,2.0,6.0,56,0.00,,,0.00,,2013-05-15 14:59:00,
2013-05-15 11:08:00,80.0,63.0,30.20,ENE,77,2.0,7.0,57,0.00,,,0.00,,2013-05-15 15:08:00,
2013-05-15 11:16:00,80.0,63.0,30.20,ENE,77,2.0,7.0,57,0.00,,,0.00,,2013-05-15 15:16:00,
2013-05-15 11:28:00,80.0,63.0,30.20,SE,145,3.0,9.0,56,0.00,,,0.00,,2013-05-15 15:28:00,
2013-05-15 11:37:00,80.0,62.0,30.20,ENE,73,4.0,9.0,55,0.00,,,0.00,,2013-05-15 15:37:00,
2013-05-15 11:47:00,80.0,62.0,30.20,ENE,73,4.0,9.0,55,0.00,,,0.00,,2013-05-15 15:47:00,
2013-05-15 12:02:00,79.0,63.0,30.20,East,94,2.0,10.0,58,0.00,,,0.00,,2013-05-15 16:02:00,
2013-05-15 12:10:00,80.0,63.0,30.20,NE,39,2.0,9.0,57,0.00,,,0.00,,2013-05-15 16:10:00,
2013-05-15 12:22:00,81.0,64.0,30.19,NNE,15,4.0,10.0,56,0.00,,,0.00,,2013-05-15 16:22:00,
2013-05-15 12:28:00,81.0,64.0,30.19,NNE,15,4.0,10.0,56,0.00,,,0.00,,2013-05-15 16:28:00,
2013-05-15 12:36:00,82.0,63.0,30.19,ENE,75,4.0,7.0,52,0.00,,,0.00,,2013-05-15 16:36:00,
2013-05-15 12:47:00,82.0,63.0,30.19,ENE,75,4.0,7.0,52,0.00,,,0.00,,2013-05-15 16:47:00,
2013-05-15 13:10:00,80.0,63.0,30.19,SE,127,5.0,10.0,57,0.00,,,0.00,,2013-05-15 17:10:00,
2013-05-15 13:27:00,80.0,64.0,30.19,NE,37,4.0,13.0,58,0.00,,,0.00,,2013-05-15 17:27:00,
2013-05-15 13:37:00,81.0,64.0,30.19,NE,52,3.0,13.0,56,0.00,,,0.00,,2013-05-15 17:37:00,
2013-05-15 13:46:00,81.0,64.0,30.19,NE,52,3.0,13.0,56,0.00,,,0.00,,2013-05-15 17:46:00,
2013-05-15 13:59:00,81.0,63.0,30.19,East,93,5.0,11.0,55,0.00,,,0.00,,2013-05-15 17:59:00,
2013-05-15 14:07:00,80.0,63.0,30.18,NE,55,3.0,9.0,56,0.00,,,0.00,,2013-05-15 18:07:00,
2013-05-15 14:16:00,80.0,63.0,30.18,NE,55,3.0,9.0,56,0.00,,,0.00,,2013-05-15 18:16:00,
2013-05-15 14:27:00,81.0,64.0,30.18,ESE,113,3.0,10.0,56,0.00,,,0.00,,2013-05-15 18:27:00,
2013-05-15 14:37:00,81.0,63.0,30.17,East,88,7.0,10.0,54,0.00,,,0.00,,2013-05-15 18:37:00,
2013-05-15 14:46:00,81.0,63.0,30.17,East,88,7.0,10.0,54,0.00,,,0.00,,2013-05-15 18:46:00,
2013-05-15 14:54:00,81.0,63.0,30.17,East,84,3.0,11.0,55,0.00,,,0.00,,2013-05-15 18:54:00,
2013-05-15 15:09:00,81.0,63.0,30.17,East,84,3.0,11.0,55,0.00,,,0.00,,2013-05-15 19:09:00,
2013-05-15 15:15:00,81.0,63.0,30.17,East,84,3.0,11.0,55,0.00,,,0.00,,2013-05-15 19:15:00,
2013-05-15 15:30:00,82.0,64.0,30.16,NE,46,2.0,10.0,55,0.00,,,0.00,,2013-05-15 19:30:00,
2013-05-15 15:38:00,82.0,63.0,30.15,East,83,4.0,12.0,53,0.00,,,0.00,,2013-05-15 19:38:00,
2013-05-15 15:49:00,82.0,63.0,30.15,East,83,4.0,12.0,53,0.00,,,0.00,,2013-05-15 19:49:00,
2013-05-15 16:08:00,81.0,64.0,30.14,ENE,77,3.0,12.0,57,0.00,,,0.00,,2013-05-15 20:08:00,
2013-05-15 16:19:00,81.0,64.0,30.14,ENE,77,3.0,12.0,57,0.00,,,0.00,,2013-05-15 20:19:00,
2013-05-15 16:29:00,80.0,64.0,30.13,NNW,330,6.0,10.0,59,0.00,,,0.00,,2013-05-15 20:29:00,
2013-05-15 16:46:00,80.0,65.0,30.12,ESE,109,5.0,13.0,60,0.00,,,0.00,,2013-05-15 20:46:00,
2013-05-15 16:58:00,81.0,65.0,30.12,East,96,2.0,10.0,59,0.00,,,0.00,,2013-05-15 20:58:00,
2013-05-15 17:08:00,80.0,64.0,30.12,ENE,58,5.0,11.0,59,0.00,,,0.00,,2013-05-15 21:08:00,
2013-05-15 17:19:00,80.0,64.0,30.12,ENE,58,5.0,11.0,59,0.00,,,0.00,,2013-05-15 21:19:00,
2013-05-15 17:28:00,81.0,65.0,30.12,ESE,103,4.0,11.0,59,0.00,,,0.00,,2013-05-15 21:28:00,
2013-05-15 17:40:00,80.0,65.0,30.12,NE,53,3.0,8.0,60,0.00,,,0.00,,2013-05-15 21:40:00,
2013-05-15 17:51:00,80.0,65.0,30.12,NE,53,3.0,8.0,60,0.00,,,0.00,,2013-05-15 21:51:00,
2013-05-15 18:11:00,81.0,66.0,30.12,ENE,65,3.0,10.0,60,0.00,,,0.00,,2013-05-15 22:11:00,
2013-05-15 18:18:00,81.0,66.0,30.12,ENE,65,3.0,10.0,60,0.00,,,0.00,,2013-05-15 22:18:00,
2013-05-15 18:29:00,81.0,67.0,30.11,East,85,2.0,9.0,62,0.00,,,0.00,,2013-05-15 22:29:00,
2013-05-15 18:40:00,81.0,66.0,30.11,East,93,2.0,6.0,60,0.00,,,0.00,,2013-05-15 22:40:00,
2013-05-15 18:49:00,81.0,66.0,30.11,East,93,2.0,6.0,60,0.00,,,0.00,,2013-05-15 22:49:00,
2013-05-15 18:59:00,79.0,65.0,30.11,East,91,6.0,13.0,62,0.00,,,0.00,,2013-05-15 22:59:00,
2013-05-15 19:07:00,78.0,64.0,30.11,ENE,72,5.0,9.0,62,0.00,,,0.00,,2013-05-15 23:07:00,
2013-05-15 19:28:00,78.0,64.0,30.11,East,98,1.0,10.0,63,0.00,,,0.00,,2013-05-15 23:28:00,
2013-05-15 19:38:00,78.0,65.0,30.11,East,86,3.0,10.0,64,0.00,,,0.00,,2013-05-15 23:38:00,
2013-05-15 19:49:00,78.0,65.0,30.11,East,86,3.0,10.0,64,0.00,,,0.00,,2013-05-15 23:49:00,
2013-05-15 20:17:00,77.0,64.0,30.11,East,99,3.0,11.0,64,0.00,,,0.00,,2013-05-16 00:17:00,
2013-05-15 20:27:00,76.0,63.0,30.11,East,94,5.0,9.0,64,0.00,,,0.00,,2013-05-16 00:27:00,
2013-05-15 20:35:00,76.0,62.0,30.12,East,89,4.0,13.0,63,0.00,,,0.00,,2013-05-16 00:35:00,
2013-05-15 20:58:00,76.0,62.0,30.12,East,89,4.0,13.0,63,0.00,,,0.00,,2013-05-16 00:58:00,
2013-05-15 21:07:00,76.0,63.0,30.13,East,94,1.0,6.0,64,0.00,,,0.00,,2013-05-16 01:07:00,
2013-05-15 21:17:00,76.0,62.0,30.12,ESE,113,2.0,7.0,63,0.00,,,0.00,,2013-05-16 01:17:00,
2013-05-15 21:30:00,76.0,62.0,30.12,ESE,113,2.0,7.0,63,0.00,,,0.00,,2013-05-16 01:30:00,
2013-05-15 21:38:00,75.0,62.0,30.12,ESE,117,2.0,8.0,65,0.00,,,0.00,,2013-05-16 01:38:00,
2013-05-15 21:48:00,75.0,62.0,30.12,ESE,117,2.0,8.0,65,0.00,,,0.00,,2013-05-16 01:48:00,
2013-05-15 22:01:00,75.0,62.0,30.13,ESE,104,3.0,8.0,64,0.00,,,0.00,,2013-05-16 02:01:00,
2013-05-15 22:07:00,75.0,62.0,30.13,ESE,108,1.0,4.0,65,0.00,,,0.00,,2013-05-16 02:07:00,
2013-05-15 22:17:00,75.0,62.0,30.13,ESE,108,1.0,4.0,65,0.00,,,0.00,,2013-05-16 02:17:00,
2013-05-15 22:28:00,75.0,62.0,30.13,East,79,1.0,3.0,65,0.00,,,0.00,,2013-05-16 02:28:00,
2013-05-15 22:38:00,75.0,62.0,30.14,East,92,1.0,5.0,65,0.00,,,0.00,,2013-05-16 02:38:00,
2013-05-15 22:46:00,75.0,62.0,30.14,East,92,1.0,5.0,65,0.00,,,0.00,,2013-05-16 02:46:00,
2013-05-15 22:55:00,75.0,62.0,30.14,East,92,1.0,5.0,65,0.00,,,0.00,,2013-05-16 02:55:00,
2013-05-15 23:07:00,75.0,62.0,30.14,ENE,70,1.0,7.0,64,0.00,,,0.00,,2013-05-16 03:07:00,
2013-05-15 23:16:00,75.0,62.0,30.14,ENE,70,1.0,7.0,64,0.00,,,0.00,,2013-05-16 03:16:00,
2013-05-15 23:38:00,74.0,61.0,30.14,SE,142,1.0,4.0,65,0.00,,,0.00,,2013-05-16 03:38:00,
2013-05-15 23:45:00,74.0,61.0,30.14,SE,142,1.0,4.0,65,0.00,,,0.00,,2013-05-16 03:45:00,
2013-05-15 23:55:00,74.0,62.0,30.14,East,80,0.0,2.0,66,0.00,,,0.00,,2013-05-16 03:55:00,